Flight Track Log - Related Links

Times and Time Zones

All times are in EDT time to prevent confusion due to time zone crossing. See the ISA506 flight status page for this flight to view local times or setup timezone preferences in your user account.

Time Position Orientation Groundspeed Altitude Reporting Facility
EDT Latitude Longitude Course Direction KTS MPH feet Rate Location/Type
Thu 10:50:00 AM 41.4486 -70.1558 336° Northwest  Level FlightAware Approximate
Thu 10:51:00 AM 41.4812 -70.1750 337° Northwest  Level FlightAware Approximate
Thu 10:52:00 AM 41.5140 -70.1937 337° Northwest  Level FlightAware Approximate
Thu 10:53:00 AM 41.5468 -70.2124 337° Northwest  Level FlightAware Approximate
Thu 10:54:00 AM 41.5796 -70.2312 337° Northwest  Level FlightAware Approximate
Thu 10:55:00 AM 41.6136 -70.2454 343° North  Level FlightAware Approximate
Thu 10:56:00 AM 41.6478 -70.2591 343° North  Level FlightAware Approximate
Thu 10:57:00 AM 41.6667 -70.2667 343° North  Level FlightAware Approximate
Thu 10:58:00 AM 41.6693 -70.2804 343° North  Level Estimated
Thu 10:59:00 AM 41.6693 -70.2804 343° North  Level Estimated
Thu 11:00:00 AM 41.6693 -70.2804 343° North  Level Estimated
Thu 11:01:00 AM 41.6693 -70.2804 343° North  Level Estimated
Thu 11:02:00 AM 41.6693 -70.2804 343° North  Level Estimated
Thu 11:03:00 AM 41.6693 -70.2804 343° North  Level Estimated
Thu 11:04:00 AM 41.6693 -70.2804 343° North  Level Estimated
Thu 11:05:00 AM 41.6693 -70.2804 343° North  Level Estimated
Thu 11:06:00 AM 41.6693 -70.2804 343° North  Level Estimated
Thu 11:07:00 AM 41.6693 -70.2804 343° North  Level Estimated
Thu 11:08:00 AM 41.6693 -70.2804 343° North  Level Estimated
Thu 11:09:00 AM 41.6693 -70.2804 343° North  Level Estimated
Thu 11:10:00 AM 41.6693 -70.2804 343° North  Level Estimated

Login

Don't have an account? Register now (free) for customized features, flight alerts, and more!